Time;durP1;ratioP1;P1;durP2;ratioP2;P2;SDS_P1;SDS_P2;PMS_P1;PMS_P2;Temp;Humidity;BMP_temperature;BMP_pressure;BME280_temperature;BME280_humidity;BME280_pressure;Samples;Min_cycle;Max_cycle;Signal;HPM_P1;HPM_P2
2022/03/15 00:00:49;;;;;;;9.85;7.22;;;;;;;;;;5074973;28;20035;-67
2022/03/15 00:03:15;;;;;;;11.25;7.75;;;;;;;;;;5096075;28;20034;-67
2022/03/15 00:05:41;;;;;;;12.90;8.80;;;;;;;;;;5097002;28;20473;-67
2022/03/15 00:08:07;;;;;;;13.70;8.73;;;;;;;;;;5099284;28;20035;-67
2022/03/15 00:10:34;;;;;;;13.15;9.48;;;;;;;;;;5107522;28;20060;-67
2022/03/15 00:13:00;;;;;;;14.15;10.05;;;;;;;;;;5092989;28;20032;-69
2022/03/15 00:15:26;;;;;;;15.93;10.98;;;;;;;;;;5094769;28;20110;-67
2022/03/15 00:17:52;;;;;;;17.30;12.25;;;;;;;;;;5078662;28;20593;-67
2022/03/15 00:20:20;;;;;;;13.15;9.32;;;;;;;;;;5096476;28;20081;-66
2022/03/15 00:22:47;;;;;;;14.02;10.15;;;;;;;;;;5078997;28;20024;-66
2022/03/15 00:25:16;;;;;;;14.48;10.07;;;;;;;;;;5076917;28;20040;-67
2022/03/15 00:27:43;;;;;;;16.05;10.45;;;;;;;;;;5074594;28;20092;-67
2022/03/15 00:30:10;;;;;;;13.75;9.60;;;;;;;;;;5095638;28;20047;-67
2022/03/15 00:32:36;;;;;;;12.70;9.10;;;;;;;;;;5096386;28;20481;-67
2022/03/15 00:35:07;;;;;;;12.18;8.75;;;;;;;;;;5096038;28;20071;-67
2022/03/15 00:37:37;;;;;;;12.75;9.35;;;;;;;;;;5078523;28;20023;-67
2022/03/15 00:40:04;;;;;;;12.95;9.52;;;;;;;;;;5075178;28;20103;-67
2022/03/15 00:42:30;;;;;;;13.57;8.55;;;;;;;;;;5093766;28;20177;-67
2022/03/15 00:45:01;;;;;;;12.68;9.75;;;;;;;;;;5096259;28;20536;-67
2022/03/15 00:47:28;;;;;;;14.25;10.05;;;;;;;;;;5101858;28;20078;-67
2022/03/15 00:49:54;;;;;;;12.48;9.15;;;;;;;;;;5102999;28;20024;-67
2022/03/15 00:52:20;;;;;;;14.77;10.25;;;;;;;;;;5094233;28;20028;-67
2022/03/15 00:54:46;;;;;;;16.95;10.80;;;;;;;;;;5099826;28;20058;-67
2022/03/15 00:57:12;;;;;;;14.82;10.43;;;;;;;;;;5095490;28;20401;-67
2022/03/15 00:59:38;;;;;;;16.40;9.63;;;;;;;;;;5095987;28;20162;-67
2022/03/15 01:02:04;;;;;;;14.85;10.20;;;;;;;;;;5078433;28;20099;-67
2022/03/15 01:04:30;;;;;;;16.90;10.57;;;;;;;;;;5095749;28;20027;-68
2022/03/15 01:06:57;;;;;;;17.45;10.93;;;;;;;;;;5091500;28;20380;-67
2022/03/15 01:09:23;;;;;;;18.25;11.48;;;;;;;;;;5094570;28;20512;-67
2022/03/15 01:11:49;;;;;;;17.58;11.25;;;;;;;;;;5095866;28;20052;-67
2022/03/15 01:14:15;;;;;;;17.15;11.27;;;;;;;;;;5095795;28;20028;-67
2022/03/15 01:16:41;;;;;;;17.83;11.60;;;;;;;;;;5095867;28;20380;-67
2022/03/15 01:19:08;;;;;;;17.80;11.55;;;;;;;;;;5092878;28;20104;-67
2022/03/15 01:21:38;;;;;;;17.30;11.57;;;;;;;;;;5092772;28;20103;-67
2022/03/15 01:24:06;;;;;;;17.77;12.10;;;;;;;;;;5095081;28;20020;-67
2022/03/15 01:26:33;;;;;;;17.50;12.65;;;;;;;;;;5101950;28;20020;-67
2022/03/15 01:29:00;;;;;;;16.55;11.73;;;;;;;;;;5102739;28;20044;-67
2022/03/15 01:31:26;;;;;;;15.57;10.27;;;;;;;;;;5094971;28;20111;-67
2022/03/15 01:33:52;;;;;;;16.05;11.10;;;;;;;;;;5073033;28;20070;-67
2022/03/15 01:36:18;;;;;;;16.80;12.18;;;;;;;;;;5095140;28;20024;-67
2022/03/15 01:38:44;;;;;;;17.23;12.07;;;;;;;;;;5095476;28;20107;-67
2022/03/15 01:41:10;;;;;;;18.33;12.45;;;;;;;;;;5095148;28;20108;-67
2022/03/15 01:43:39;;;;;;;18.63;12.77;;;;;;;;;;5095735;28;20062;-67
2022/03/15 01:46:05;;;;;;;20.08;13.38;;;;;;;;;;5092198;28;20024;-67
2022/03/15 01:48:31;;;;;;;18.63;12.50;;;;;;;;;;5093166;28;20032;-67
2022/03/15 01:50:58;;;;;;;18.60;12.63;;;;;;;;;;5095117;28;20035;-67
2022/03/15 01:53:24;;;;;;;18.10;12.35;;;;;;;;;;5077867;28;20058;-67
2022/03/15 01:55:50;;;;;;;18.10;13.05;;;;;;;;;;5103265;28;20027;-67
2022/03/15 01:58:16;;;;;;;17.90;12.55;;;;;;;;;;5093759;28;20054;-67
2022/03/15 02:00:42;;;;;;;18.60;12.07;;;;;;;;;;5092363;28;20028;-66
2022/03/15 02:03:08;;;;;;;17.30;12.02;;;;;;;;;;5097257;28;20028;-67
2022/03/15 02:05:34;;;;;;;16.75;12.07;;;;;;;;;;5105358;28;20024;-67
2022/03/15 02:08:16;;;;;;;20.05;12.50;;;;;;;;;;5106191;28;20107;-67
2022/03/15 02:10:42;;;;;;;20.83;13.68;;;;;;;;;;5098399;28;20494;-67
2022/03/15 02:13:09;;;;;;;19.20;13.82;;;;;;;;;;5078400;28;20392;-67
2022/03/15 02:15:35;;;;;;;20.25;13.60;;;;;;;;;;5078322;28;20020;-67
2022/03/15 02:24:08;;;;;;;17.33;12.25;;;;;;;;;;5108503;28;20034;-67
2022/03/15 02:26:34;;;;;;;21.20;12.63;;;;;;;;;;5100753;28;20032;-67
2022/03/15 02:29:00;;;;;;;20.25;12.77;;;;;;;;;;5080808;28;20068;-67
2022/03/15 02:31:26;;;;;;;17.90;12.48;;;;;;;;;;5098305;28;20024;-67
2022/03/15 02:33:52;;;;;;;18.52;12.77;;;;;;;;;;5093759;28;20118;-66
2022/03/15 02:36:18;;;;;;;19.60;13.38;;;;;;;;;;5097912;28;20035;-66
2022/03/15 02:38:45;;;;;;;19.42;13.70;;;;;;;;;;5081062;28;20036;-66
2022/03/15 02:41:11;;;;;;;17.98;13.15;;;;;;;;;;5098458;28;20027;-66
2022/03/15 02:43:38;;;;;;;19.15;12.30;;;;;;;;;;5078626;28;20481;-66
2022/03/15 02:46:04;;;;;;;18.33;13.20;;;;;;;;;;5110141;28;20103;-66
2022/03/15 02:48:30;;;;;;;19.30;12.93;;;;;;;;;;5095630;28;20035;-66
2022/03/15 02:51:00;;;;;;;17.38;12.43;;;;;;;;;;5098459;28;20028;-65
2022/03/15 02:53:26;;;;;;;21.73;12.93;;;;;;;;;;5098245;28;20040;-65
2022/03/15 02:55:52;;;;;;;19.98;12.93;;;;;;;;;;5105524;28;20023;-66
2022/03/15 02:58:19;;;;;;;19.17;12.63;;;;;;;;;;5079352;28;20084;-66
2022/03/15 03:00:45;;;;;;;18.13;12.75;;;;;;;;;;5094175;28;20031;-65
2022/03/15 03:03:11;;;;;;;20.02;13.35;;;;;;;;;;5079074;28;20481;-66
2022/03/15 03:05:39;;;;;;;19.63;13.05;;;;;;;;;;5098110;28;20024;-66
2022/03/15 03:08:05;;;;;;;18.98;12.52;;;;;;;;;;5098108;28;20051;-66
2022/03/15 03:10:32;;;;;;;18.83;12.55;;;;;;;;;;5097723;28;20469;-66
2022/03/15 03:12:58;;;;;;;19.00;12.50;;;;;;;;;;5093092;28;20110;-65
2022/03/15 03:15:24;;;;;;;17.63;12.95;;;;;;;;;;5096160;28;20045;-66
2022/03/15 03:17:51;;;;;;;18.80;13.15;;;;;;;;;;5076871;28;20110;-66
2022/03/15 03:20:21;;;;;;;21.58;13.77;;;;;;;;;;5079688;28;20020;-66
2022/03/15 03:22:48;;;;;;;18.73;12.88;;;;;;;;;;5097074;28;20024;-67
2022/03/15 03:25:15;;;;;;;19.92;14.00;;;;;;;;;;5109275;28;20020;-66
2022/03/15 03:27:41;;;;;;;18.73;12.85;;;;;;;;;;5094455;28;20043;-66
2022/03/15 03:30:07;;;;;;;19.20;13.27;;;;;;;;;;5096866;28;20052;-66
2022/03/15 03:32:34;;;;;;;16.90;12.80;;;;;;;;;;5097091;28;20032;-66
2022/03/15 03:35:04;;;;;;;17.58;12.82;;;;;;;;;;5097012;28;20016;-66
2022/03/15 03:37:30;;;;;;;16.52;12.52;;;;;;;;;;5097241;28;20027;-65
2022/03/15 03:39:56;;;;;;;19.85;12.73;;;;;;;;;;5093170;28;20020;-65
2022/03/15 03:42:23;;;;;;;20.20;13.65;;;;;;;;;;5096595;28;20024;-66
2022/03/15 03:44:49;;;;;;;19.50;13.70;;;;;;;;;;5097193;28;20027;-65
2022/03/15 03:47:15;;;;;;;22.90;13.48;;;;;;;;;;5096345;28;20039;-65
2022/03/15 03:49:41;;;;;;;20.60;14.32;;;;;;;;;;5097073;28;20070;-65
2022/03/15 03:52:08;;;;;;;18.98;13.10;;;;;;;;;;5093951;28;20030;-65
2022/03/15 03:54:34;;;;;;;19.42;12.98;;;;;;;;;;5102137;28;20028;-65
2022/03/15 03:57:01;;;;;;;18.67;12.75;;;;;;;;;;5087307;28;20035;-65
2022/03/15 03:59:27;;;;;;;14.85;9.70;;;;;;;;;;5088647;28;20020;-65
2022/03/15 04:01:53;;;;;;;19.77;12.45;;;;;;;;;;5104385;28;20034;-64
2022/03/15 04:04:19;;;;;;;15.25;10.77;;;;;;;;;;5095398;28;20016;-65
2022/03/15 04:06:46;;;;;;;15.30;10.18;;;;;;;;;;5093213;28;21020;-65
2022/03/15 04:09:12;;;;;;;12.75;7.63;;;;;;;;;;5096180;28;20473;-68
2022/03/15 04:11:40;;;;;;;14.20;8.05;;;;;;;;;;5096719;28;20058;-64
2022/03/15 04:14:07;;;;;;;14.73;9.55;;;;;;;;;;5078333;28;20024;-65
2022/03/15 04:16:33;;;;;;;14.93;10.40;;;;;;;;;;5096487;28;20047;-65
2022/03/15 04:18:59;;;;;;;15.05;10.77;;;;;;;;;;5092618;28;20066;-65
2022/03/15 04:21:25;;;;;;;15.50;10.63;;;;;;;;;;5095633;28;20473;-65
2022/03/15 04:23:54;;;;;;;15.73;10.77;;;;;;;;;;5096575;28;20038;-65
2022/03/15 04:26:20;;;;;;;17.30;11.05;;;;;;;;;;5096225;28;20515;-65
2022/03/15 04:28:46;;;;;;;17.15;11.93;;;;;;;;;;5078236;28;20055;-65
2022/03/15 04:31:13;;;;;;;18.77;12.93;;;;;;;;;;5093753;28;20878;-65
2022/03/15 04:33:39;;;;;;;20.45;13.70;;;;;;;;;;5093716;28;20022;-65
2022/03/15 04:36:06;;;;;;;22.27;13.68;;;;;;;;;;5095957;28;20397;-65
2022/03/15 04:38:32;;;;;;;21.88;14.70;;;;;;;;;;5096366;28;20012;-65
2022/03/15 04:40:59;;;;;;;21.98;14.50;;;;;;;;;;5097194;28;20031;-65
2022/03/15 04:43:25;;;;;;;20.98;14.07;;;;;;;;;;5107317;28;20040;-66
2022/03/15 04:45:51;;;;;;;23.38;14.30;;;;;;;;;;5074717;28;20067;-67
2022/03/15 04:48:18;;;;;;;19.83;13.18;;;;;;;;;;5106913;28;20110;-66
2022/03/15 04:50:44;;;;;;;20.98;13.40;;;;;;;;;;5097144;28;20052;-66
2022/03/15 04:53:10;;;;;;;19.52;13.13;;;;;;;;;;5097968;28;20026;-66
2022/03/15 04:55:37;;;;;;;20.10;13.48;;;;;;;;;;5106740;28;20549;-66
2022/03/15 04:58:03;;;;;;;24.63;14.60;;;;;;;;;;5092884;28;20031;-66
2022/03/15 05:00:29;;;;;;;20.65;13.30;;;;;;;;;;5093779;28;20024;-66
2022/03/15 05:02:55;;;;;;;20.75;13.85;;;;;;;;;;5095240;28;20024;-66
2022/03/15 05:05:21;;;;;;;20.98;13.25;;;;;;;;;;5078527;28;20026;-66
2022/03/15 05:07:47;;;;;;;22.35;14.48;;;;;;;;;;5095839;28;20043;-66
2022/03/15 05:12:58;;;;;;;20.17;12.93;;;;;;;;;;5091163;28;20042;-66
2022/03/15 05:15:24;;;;;;;19.50;12.98;;;;;;;;;;5095093;28;20031;-66
2022/03/15 05:17:50;;;;;;;18.33;13.07;;;;;;;;;;5095579;28;20032;-65
2022/03/15 05:20:17;;;;;;;17.08;12.55;;;;;;;;;;5099646;28;20024;-66
2022/03/15 05:22:44;;;;;;;21.55;13.05;;;;;;;;;;5104993;28;20030;-66
2022/03/15 05:25:11;;;;;;;22.95;12.80;;;;;;;;;;5092554;28;20024;-66
2022/03/15 05:27:37;;;;;;;17.95;12.38;;;;;;;;;;5093126;28;20063;-67
2022/03/15 05:30:04;;;;;;;17.83;12.20;;;;;;;;;;5085846;28;20086;-67
2022/03/15 05:32:30;;;;;;;18.70;12.55;;;;;;;;;;5098550;28;20116;-67
2022/03/15 05:34:56;;;;;;;18.55;12.82;;;;;;;;;;5095130;28;20099;-68
2022/03/15 05:37:22;;;;;;;19.92;12.50;;;;;;;;;;5096513;28;20026;-65
2022/03/15 05:39:49;;;;;;;15.80;11.32;;;;;;;;;;5095385;28;20055;-65
2022/03/15 05:42:17;;;;;;;16.13;11.27;;;;;;;;;;5098927;28;20066;-66
2022/03/15 05:44:43;;;;;;;18.10;11.48;;;;;;;;;;5099463;28;20028;-65
2022/03/15 05:47:09;;;;;;;17.02;11.75;;;;;;;;;;5101867;28;20032;-65
2022/03/15 05:49:35;;;;;;;19.20;14.40;;;;;;;;;;5107302;28;20027;-64
2022/03/15 05:52:01;;;;;;;17.23;11.65;;;;;;;;;;5111775;28;20040;-65
2022/03/15 05:54:27;;;;;;;17.95;10.82;;;;;;;;;;5113716;28;20086;-70
2022/03/15 05:56:53;;;;;;;16.85;11.05;;;;;;;;;;5112298;28;20107;-69
2022/03/15 05:59:19;;;;;;;17.42;11.32;;;;;;;;;;5103383;28;20389;-70
2022/03/15 06:01:45;;;;;;;15.23;10.55;;;;;;;;;;5099140;28;20107;-70
2022/03/15 06:04:11;;;;;;;17.17;10.55;;;;;;;;;;5096504;28;20024;-70
2022/03/15 06:06:37;;;;;;;17.33;11.80;;;;;;;;;;5096582;28;20071;-66
2022/03/15 06:09:04;;;;;;;22.00;12.60;;;;;;;;;;5091123;28;20040;-70
2022/03/15 06:11:32;;;;;;;17.30;11.20;;;;;;;;;;5101367;28;20013;-69
2022/03/15 06:13:58;;;;;;;17.20;11.55;;;;;;;;;;5098902;28;20027;-69
2022/03/15 06:16:24;;;;;;;18.50;12.65;;;;;;;;;;5080889;28;20422;-70
2022/03/15 06:18:50;;;;;;;17.45;11.82;;;;;;;;;;5094547;28;20024;-69
2022/03/15 06:21:16;;;;;;;15.48;11.40;;;;;;;;;;5098356;28;20024;-70
2022/03/15 06:23:42;;;;;;;16.10;11.63;;;;;;;;;;5098458;28;20024;-70
2022/03/15 06:26:09;;;;;;;18.17;11.80;;;;;;;;;;5098697;28;20465;-70
2022/03/15 06:28:35;;;;;;;18.40;12.43;;;;;;;;;;5098441;28;20059;-69
2022/03/15 06:31:02;;;;;;;16.40;11.55;;;;;;;;;;5094558;28;20020;-70
2022/03/15 06:33:28;;;;;;;15.93;10.90;;;;;;;;;;5096892;28;20024;-70
2022/03/15 06:35:54;;;;;;;17.13;11.65;;;;;;;;;;5098534;28;20030;-70
2022/03/15 06:38:20;;;;;;;15.45;10.95;;;;;;;;;;5102590;28;20024;-70
2022/03/15 06:40:47;;;;;;;17.00;11.57;;;;;;;;;;5105790;28;20469;-72
2022/03/15 06:43:13;;;;;;;14.43;10.52;;;;;;;;;;5105469;28;20556;-71
2022/03/15 06:45:41;;;;;;;15.60;10.73;;;;;;;;;;5093466;28;20023;-70
2022/03/15 06:48:07;;;;;;;20.05;13.07;;;;;;;;;;5111681;28;20034;-69
2022/03/15 06:50:35;;;;;;;18.73;14.32;;;;;;;;;;5110563;28;20129;-70
2022/03/15 06:53:01;;;;;;;15.55;11.32;;;;;;;;;;5111337;28;20026;-70
2022/03/15 06:55:28;;;;;;;15.70;11.85;;;;;;;;;;5110353;28;20024;-71
2022/03/15 06:57:54;;;;;;;16.20;11.98;;;;;;;;;;5110503;28;20051;-70
2022/03/15 07:00:20;;;;;;;15.60;11.15;;;;;;;;;;5112832;28;20065;-70
2022/03/15 07:02:46;;;;;;;14.45;10.80;;;;;;;;;;5110841;28;20031;-70
2022/03/15 07:05:12;;;;;;;16.00;11.88;;;;;;;;;;5111050;28;20553;-71
2022/03/15 07:07:38;;;;;;;16.63;11.20;;;;;;;;;;5108099;28;20040;-71
2022/03/15 07:10:09;;;;;;;15.00;11.07;;;;;;;;;;5096194;28;20051;-70
2022/03/15 07:12:35;;;;;;;15.20;10.50;;;;;;;;;;5109623;28;20051;-71
2022/03/15 07:15:02;;;;;;;15.65;10.00;;;;;;;;;;5111557;28;20016;-71
2022/03/15 07:17:30;;;;;;;16.02;11.18;;;;;;;;;;5100800;28;20031;-71
2022/03/15 07:19:57;;;;;;;16.67;11.20;;;;;;;;;;5107981;28;20028;-70
2022/03/15 07:22:23;;;;;;;17.67;11.65;;;;;;;;;;5110912;28;20030;-71
2022/03/15 07:24:51;;;;;;;15.27;11.38;;;;;;;;;;5092868;28;20111;-71
2022/03/15 07:27:17;;;;;;;15.80;11.98;;;;;;;;;;5111928;28;20027;-71
2022/03/15 07:29:42;;;;;;;16.63;11.45;;;;;;;;;;5098596;28;20488;-71
2022/03/15 07:32:09;;;;;;;16.17;11.15;;;;;;;;;;5079864;28;20027;-71
2022/03/15 07:34:35;;;;;;;15.38;11.35;;;;;;;;;;5096867;28;20031;-71
2022/03/15 07:37:01;;;;;;;15.25;10.85;;;;;;;;;;5093465;28;20028;-71
2022/03/15 07:39:27;;;;;;;14.18;11.27;;;;;;;;;;5095506;28;20073;-72
2022/03/15 07:41:54;;;;;;;16.75;11.10;;;;;;;;;;5097663;28;20503;-72
2022/03/15 07:44:21;;;;;;;14.82;10.88;;;;;;;;;;5097511;28;20016;-72
2022/03/15 07:46:50;;;;;;;13.88;10.63;;;;;;;;;;5097187;28;20106;-72
2022/03/15 07:49:19;;;;;;;14.25;10.13;;;;;;;;;;5109769;28;20500;-70
2022/03/15 07:51:45;;;;;;;13.02;9.50;;;;;;;;;;5094136;28;20080;-70
2022/03/15 07:54:12;;;;;;;12.15;9.75;;;;;;;;;;5102245;28;20064;-70
2022/03/15 07:56:38;;;;;;;13.55;10.00;;;;;;;;;;5098563;28;20016;-70
2022/03/15 07:59:04;;;;;;;14.52;10.35;;;;;;;;;;5096090;28;20381;-69
2022/03/15 08:01:30;;;;;;;16.33;10.70;;;;;;;;;;5095480;28;20059;-70
2022/03/15 08:03:56;;;;;;;13.68;9.60;;;;;;;;;;5092651;28;20015;-70
2022/03/15 08:06:22;;;;;;;14.98;9.93;;;;;;;;;;5107640;28;20524;-70
2022/03/15 08:08:48;;;;;;;13.63;9.57;;;;;;;;;;5078343;28;20032;-69
2022/03/15 08:11:14;;;;;;;13.40;9.77;;;;;;;;;;5096344;28;20020;-70
2022/03/15 08:13:41;;;;;;;14.38;9.15;;;;;;;;;;5096824;28;20024;-70
2022/03/15 08:16:09;;;;;;;10.85;7.45;;;;;;;;;;5093296;28;20024;-69
2022/03/15 08:18:35;;;;;;;12.45;8.30;;;;;;;;;;5093235;28;20020;-70
2022/03/15 08:21:01;;;;;;;12.93;8.68;;;;;;;;;;5096662;28;20032;-70
2022/03/15 08:23:27;;;;;;;12.13;7.43;;;;;;;;;;5096369;28;20064;-69
2022/03/15 08:25:55;;;;;;;13.73;8.25;;;;;;;;;;5096025;28;20027;-70
2022/03/15 08:28:23;;;;;;;10.87;6.43;;;;;;;;;;5077207;28;20024;-69
2022/03/15 08:30:49;;;;;;;;;;;;;;;;;;5093137;28;20438;-70
2022/03/15 08:33:15;;;;;;;8.70;6.35;;;;;;;;;;5095643;28;19961;-70
2022/03/15 08:35:41;;;;;;;11.35;7.38;;;;;;;;;;5103577;28;20504;-70
2022/03/15 08:38:08;;;;;;;13.80;9.23;;;;;;;;;;5102159;28;20024;-71
2022/03/15 08:40:35;;;;;;;13.68;9.77;;;;;;;;;;5095954;28;20102;-71
2022/03/15 08:43:01;;;;;;;16.25;10.27;;;;;;;;;;5092479;28;20024;-71
2022/03/15 08:45:27;;;;;;;15.05;10.48;;;;;;;;;;5095001;28;20026;-70
2022/03/15 08:47:53;;;;;;;12.02;8.95;;;;;;;;;;5077994;28;20068;-70
2022/03/15 08:50:20;;;;;;;14.70;8.50;;;;;;;;;;5095922;28;20020;-71
2022/03/15 08:52:48;;;;;;;11.32;8.90;;;;;;;;;;5095833;28;20046;-71
2022/03/15 08:55:14;;;;;;;11.68;8.85;;;;;;;;;;5101325;28;20496;-71
2022/03/15 08:57:40;;;;;;;13.57;9.15;;;;;;;;;;5110143;28;20024;-71
2022/03/15 09:00:07;;;;;;;13.23;10.07;;;;;;;;;;5095404;28;20499;-70
2022/03/15 09:02:34;;;;;;;13.77;9.65;;;;;;;;;;5096025;28;20028;-71
2022/03/15 09:05:00;;;;;;;14.35;9.77;;;;;;;;;;5095184;28;20063;-71
2022/03/15 09:07:27;;;;;;;11.65;9.27;;;;;;;;;;5094873;28;20099;-71
2022/03/15 09:09:53;;;;;;;10.90;8.05;;;;;;;;;;5073820;28;20484;-71
2022/03/15 09:12:20;;;;;;;10.45;8.02;;;;;;;;;;5097291;28;20063;-71
2022/03/15 09:14:46;;;;;;;11.82;8.85;;;;;;;;;;5107505;28;20032;-71
2022/03/15 09:17:13;;;;;;;11.70;8.48;;;;;;;;;;5105549;28;20043;-71
2022/03/15 09:19:40;;;;;;;10.50;8.07;;;;;;;;;;5099640;28;20045;-71
2022/03/15 09:22:07;;;;;;;11.52;8.73;;;;;;;;;;5097355;28;20072;-70
2022/03/15 09:24:33;;;;;;;10.73;8.32;;;;;;;;;;5097400;28;20030;-71
2022/03/15 09:26:59;;;;;;;11.32;8.55;;;;;;;;;;5090018;28;20120;-71
2022/03/15 09:29:25;;;;;;;10.93;8.10;;;;;;;;;;5102906;28;20044;-71
2022/03/15 09:31:51;;;;;;;10.15;7.47;;;;;;;;;;5100228;28;20024;-70
2022/03/15 09:34:21;;;;;;;9.32;6.80;;;;;;;;;;5098225;28;20028;-70
2022/03/15 09:36:48;;;;;;;7.88;6.00;;;;;;;;;;5096330;28;20115;-71
2022/03/15 09:39:14;;;;;;;8.65;6.20;;;;;;;;;;5098441;28;20051;-70
2022/03/15 09:41:40;;;;;;;9.43;6.53;;;;;;;;;;5099646;28;20013;-71
2022/03/15 09:44:08;;;;;;;7.72;5.57;;;;;;;;;;5082021;28;20024;-71
2022/03/15 09:46:38;;;;;;;8.05;5.78;;;;;;;;;;5099188;28;20074;-71
2022/03/15 09:49:06;;;;;;;9.98;6.65;;;;;;;;;;5095792;28;20028;-71
2022/03/15 09:51:33;;;;;;;8.07;6.13;;;;;;;;;;5079549;28;20024;-70
2022/03/15 09:53:59;;;;;;;9.52;6.97;;;;;;;;;;5109276;28;20156;-70
2022/03/15 09:56:25;;;;;;;8.95;6.78;;;;;;;;;;5087118;28;20076;-69
2022/03/15 09:58:51;;;;;;;9.23;6.88;;;;;;;;;;5099028;28;20075;-70
2022/03/15 10:01:18;;;;;;;9.32;6.88;;;;;;;;;;5097697;28;20500;-70
2022/03/15 10:03:44;;;;;;;9.07;6.75;;;;;;;;;;5096153;28;20031;-69
2022/03/15 10:06:10;;;;;;;8.90;6.70;;;;;;;;;;5098808;28;20481;-70
2022/03/15 10:08:37;;;;;;;9.75;6.43;;;;;;;;;;5080231;28;20118;-72
2022/03/15 10:11:03;;;;;;;9.27;6.78;;;;;;;;;;5099152;28;20048;-72
2022/03/15 10:13:29;;;;;;;9.00;6.65;;;;;;;;;;5099436;28;20024;-73
2022/03/15 10:15:56;;;;;;;8.82;6.68;;;;;;;;;;5104726;28;20024;-71
2022/03/15 10:18:22;;;;;;;9.35;6.63;;;;;;;;;;5091518;28;20020;-71
2022/03/15 10:20:49;;;;;;;10.13;6.97;;;;;;;;;;5098784;28;20027;-71
2022/03/15 10:23:16;;;;;;;9.98;7.57;;;;;;;;;;5098588;28;20024;-72
2022/03/15 10:25:45;;;;;;;10.15;7.53;;;;;;;;;;5081292;28;20019;-71
2022/03/15 10:28:11;;;;;;;10.07;7.72;;;;;;;;;;5095251;28;20028;-70
2022/03/15 10:30:38;;;;;;;9.25;7.40;;;;;;;;;;5096280;28;20032;-71
2022/03/15 10:33:05;;;;;;;10.35;7.40;;;;;;;;;;5109066;28;20027;-70
2022/03/15 10:35:35;;;;;;;7.38;5.53;;;;;;;;;;5101087;28;20024;-70
2022/03/15 10:38:03;;;;;;;8.40;6.20;;;;;;;;;;5098654;28;20120;-70
2022/03/15 10:40:42;;;;;;;8.25;6.03;;;;;;;;;;5080439;28;20481;-70
2022/03/15 10:43:09;;;;;;;8.40;6.15;;;;;;;;;;5095563;28;20020;-69
2022/03/15 10:45:35;;;;;;;7.68;5.80;;;;;;;;;;5096152;28;20020;-71
2022/03/15 10:48:02;;;;;;;7.75;5.60;;;;;;;;;;5097575;28;20047;-70
2022/03/15 10:50:30;;;;;;;7.97;6.15;;;;;;;;;;5080001;28;20473;-71
2022/03/15 10:52:56;;;;;;;8.90;6.55;;;;;;;;;;5080760;28;20028;-71
2022/03/15 10:55:23;;;;;;;11.10;6.78;;;;;;;;;;5086933;28;20027;-70
2022/03/15 10:57:52;;;;;;;10.75;6.80;;;;;;;;;;5094463;28;20051;-65
2022/03/15 11:00:22;;;;;;;8.55;6.82;;;;;;;;;;5079018;28;20024;-71
2022/03/15 11:02:50;;;;;;;9.73;6.70;;;;;;;;;;5097543;28;20032;-70
2022/03/15 11:05:30;;;;;;;8.88;6.90;;;;;;;;;;5098144;28;20027;-70
2022/03/15 11:07:56;;;;;;;8.35;6.68;;;;;;;;;;5098498;28;20032;-71
2022/03/15 11:10:25;;;;;;;8.52;6.80;;;;;;;;;;5095057;28;20431;-70
2022/03/15 11:12:58;;;;;;;10.50;7.68;;;;;;;;;;5110222;28;20028;-71
2022/03/15 11:15:28;;;;;;;10.15;7.43;;;;;;;;;;5108594;28;20061;-70
2022/03/15 11:17:57;;;;;;;7.72;6.07;;;;;;;;;;5075718;28;20481;-70
2022/03/15 11:20:23;;;;;;;7.43;6.00;;;;;;;;;;5082631;28;20097;-70
2022/03/15 11:22:52;;;;;;;8.05;6.10;;;;;;;;;;5097225;28;20103;-73
2022/03/15 11:25:19;;;;;;;8.63;6.45;;;;;;;;;;5096331;28;20027;-71
2022/03/15 11:27:45;;;;;;;9.95;6.07;;;;;;;;;;5094509;28;20058;-71
2022/03/15 11:30:16;;;;;;;8.60;5.68;;;;;;;;;;5098398;27;20416;-70
2022/03/15 11:32:43;;;;;;;8.52;5.97;;;;;;;;;;5098488;27;20028;-70
2022/03/15 11:35:09;;;;;;;9.10;6.95;;;;;;;;;;5088597;28;20038;-71
2022/03/15 11:37:36;;;;;;;10.13;7.10;;;;;;;;;;5103781;28;20510;-71
2022/03/15 11:40:04;;;;;;;10.18;7.80;;;;;;;;;;5093340;28;20550;-69
2022/03/15 11:42:32;;;;;;;10.18;7.40;;;;;;;;;;5083803;28;20421;-71
2022/03/15 11:45:03;;;;;;;8.25;6.60;;;;;;;;;;5074979;28;20064;-71
2022/03/15 11:47:45;;;;;;;8.65;6.43;;;;;;;;;;5093100;28;20095;-70
2022/03/15 11:50:20;;;;;;;6.10;4.50;;;;;;;;;;5097801;28;20031;-72
2022/03/15 11:53:08;;;;;;;5.78;4.18;;;;;;;;;;5093557;28;20119;-69
2022/03/15 11:55:43;;;;;;;6.75;4.97;;;;;;;;;;5103876;28;20027;-69
2022/03/15 11:58:11;;;;;;;7.43;4.65;;;;;;;;;;5089211;28;20512;-70
2022/03/15 12:00:42;;;;;;;5.97;4.53;;;;;;;;;;5070277;28;20032;-74
2022/03/15 12:03:08;;;;;;;6.70;5.25;;;;;;;;;;5107594;27;20528;-68
2022/03/15 12:05:51;;;;;;;7.55;5.88;;;;;;;;;;5098659;28;20393;-71
2022/03/15 12:08:27;;;;;;;7.15;5.65;;;;;;;;;;5099634;28;20039;-69
2022/03/15 12:10:56;;;;;;;7.32;5.55;;;;;;;;;;5104192;28;20035;-73
2022/03/15 12:13:32;;;;;;;8.00;6.28;;;;;;;;;;5093463;28;20012;-69
2022/03/15 12:16:13;;;;;;;7.43;5.65;;;;;;;;;;5091690;28;20041;-69
2022/03/15 12:18:48;;;;;;;6.95;5.70;;;;;;;;;;5093140;28;20020;-70
2022/03/15 12:21:14;;;;;;;7.22;5.30;;;;;;;;;;5095124;28;20404;-69
2022/03/15 12:23:45;;;;;;;7.50;5.38;;;;;;;;;;5094745;28;20358;-69
2022/03/15 12:26:18;;;;;;;8.23;5.50;;;;;;;;;;5078043;28;20501;-69
2022/03/15 12:28:55;;;;;;;7.07;5.35;;;;;;;;;;5094193;28;20062;-70
2022/03/15 12:31:31;;;;;;;8.77;5.65;;;;;;;;;;5107756;28;20024;-70
2022/03/15 12:34:01;;;;;;;7.68;5.97;;;;;;;;;;5091080;28;20099;-69
2022/03/15 12:36:36;;;;;;;7.53;5.65;;;;;;;;;;5094552;28;20020;-70
2022/03/15 12:39:09;;;;;;;7.10;5.50;;;;;;;;;;5096257;28;20121;-70
2022/03/15 12:41:35;;;;;;;8.02;5.70;;;;;;;;;;5095801;28;20132;-69
2022/03/15 12:44:01;;;;;;;6.85;4.97;;;;;;;;;;5095112;28;20020;-69
2022/03/15 12:46:30;;;;;;;6.68;5.15;;;;;;;;;;5095388;28;20028;-70
2022/03/15 12:48:57;;;;;;;7.55;5.78;;;;;;;;;;5091436;28;20034;-70
2022/03/15 12:51:23;;;;;;;8.55;6.03;;;;;;;;;;5107033;28;20051;-69
2022/03/15 12:53:49;;;;;;;7.57;5.60;;;;;;;;;;5099083;28;20070;-69
2022/03/15 12:56:15;;;;;;;7.50;5.47;;;;;;;;;;5107010;28;20023;-70
2022/03/15 12:58:42;;;;;;;6.78;5.22;;;;;;;;;;5105236;28;20042;-70
2022/03/15 13:01:08;;;;;;;8.18;6.28;;;;;;;;;;5092729;28;20024;-70
2022/03/15 13:03:36;;;;;;;9.00;6.78;;;;;;;;;;5107641;28;20099;-69
2022/03/15 13:06:03;;;;;;;8.25;6.65;;;;;;;;;;5095376;28;20019;-69
2022/03/15 13:08:29;;;;;;;8.32;7.43;;;;;;;;;;5102772;28;20031;-68
2022/03/15 13:10:58;;;;;;;7.45;6.20;;;;;;;;;;5108542;28;20023;-71
2022/03/15 13:13:27;;;;;;;7.10;5.80;;;;;;;;;;5108870;28;20548;-70
2022/03/15 13:16:01;;;;;;;6.35;4.40;;;;;;;;;;5090054;28;20050;-70
2022/03/15 13:18:28;;;;;;;7.85;4.60;;;;;;;;;;5108039;28;20020;-70
2022/03/15 13:21:01;;;;;;;6.30;4.80;;;;;;;;;;5084033;28;20020;-69
2022/03/15 13:23:28;;;;;;;8.30;5.95;;;;;;;;;;5095425;28;20023;-69
2022/03/15 13:26:04;;;;;;;7.90;5.70;;;;;;;;;;5077554;28;20473;-69
2022/03/15 13:28:31;;;;;;;7.18;5.35;;;;;;;;;;5095025;28;20038;-71
2022/03/15 13:30:59;;;;;;;6.93;5.07;;;;;;;;;;5091252;28;20023;-71
2022/03/15 13:33:51;;;;;;;4.82;3.60;;;;;;;;;;5110485;28;20080;-69
2022/03/15 13:36:24;;;;;;;4.93;3.65;;;;;;;;;;5096841;28;20489;-69
2022/03/15 13:38:55;;;;;;;5.30;4.32;;;;;;;;;;5090879;28;20404;-69
2022/03/15 13:41:25;;;;;;;6.22;4.65;;;;;;;;;;5108043;28;20082;-69
2022/03/15 13:43:52;;;;;;;6.38;4.82;;;;;;;;;;5091081;28;20023;-70
2022/03/15 13:46:18;;;;;;;7.20;4.80;;;;;;;;;;5108419;28;20038;-70
2022/03/15 13:48:46;;;;;;;6.10;5.15;;;;;;;;;;5108228;28;20067;-70
2022/03/15 13:51:22;;;;;;;8.35;6.13;;;;;;;;;;5108997;28;20020;-70
2022/03/15 13:53:49;;;;;;;7.38;5.85;;;;;;;;;;5108739;28;20019;-70
2022/03/15 13:56:15;;;;;;;8.40;6.43;;;;;;;;;;5090670;28;20023;-70
2022/03/15 13:58:45;;;;;;;7.72;6.43;;;;;;;;;;5110048;28;20076;-70
2022/03/15 14:01:11;;;;;;;7.40;6.10;;;;;;;;;;5111916;28;20015;-70
2022/03/15 14:03:37;;;;;;;7.70;6.35;;;;;;;;;;5112769;28;20441;-70
2022/03/15 14:06:07;;;;;;;7.20;6.15;;;;;;;;;;5113132;28;20023;-70
2022/03/15 14:08:48;;;;;;;7.32;6.13;;;;;;;;;;5091862;28;20508;-70
2022/03/15 14:11:15;;;;;;;7.15;5.68;;;;;;;;;;5110288;28;20019;-70
2022/03/15 14:13:54;;;;;;;5.50;4.47;;;;;;;;;;5105904;28;20027;-70
2022/03/15 14:16:22;;;;;;;7.15;5.25;;;;;;;;;;5079926;28;20458;-70
2022/03/15 14:18:54;;;;;;;6.95;5.47;;;;;;;;;;5076455;28;20393;-70
2022/03/15 14:21:24;;;;;;;7.65;5.38;;;;;;;;;;5098362;28;20016;-70
2022/03/15 14:23:58;;;;;;;6.60;5.05;;;;;;;;;;5098772;28;20090;-70
2022/03/15 14:26:27;;;;;;;7.88;5.13;;;;;;;;;;5109721;28;20024;-70
2022/03/15 14:28:55;;;;;;;6.45;4.63;;;;;;;;;;5111886;28;20043;-70
2022/03/15 14:31:26;;;;;;;6.07;4.53;;;;;;;;;;5091313;28;20072;-70
2022/03/15 14:34:00;;;;;;;6.93;5.28;;;;;;;;;;5112259;28;20065;-70
2022/03/15 14:36:31;;;;;;;7.47;5.35;;;;;;;;;;5109828;28;20118;-70
2022/03/15 14:38:57;;;;;;;4.97;4.10;;;;;;;;;;5098277;28;20594;-70